Shiloh, Ohio
Current Conditions -  °F | °C
As of 4:52 AM on Monday 22 Dec 2014 (Local Time) from KMFD Reporting Station
Haze Haze  
Wind Chill: 17°   Ceiling: Unl
Heat Index: 24°   Visibility: 6mi
Dew Point: 22°   Wind: 6mph
Humidity: 91%   Direction: 160°SSE
Pressure: 30.08"   Gusts: NA
Location:  40.97°N, 82.6°W
Report Text: KMFD 220952Z AUTO 16005KT 6SM BR CLR M04/M06 A3008 RMK AO2 SLP202 T10441056
Loading
Personal Weather Stations






























Interactive Weather Map New forecast layout! Learn more

10-Day Weather Forecast

Advertisements
Track Severe Weather on mobile